Airfield :
LOGIN :

Register | Disclaimer

   EN    FR    IT 

 










Legend :    VFR   Marginal VFR   IFR   Intensive IFR   Very Intensive IFR
Visi :
Ceiling :
>= 8 km
>= 3000ft
5 to 8 km
1000 to 3000 ft
1500m to 5 km
500 to 1000 ft
800 to 1500m
200 to 500 ft
< 800m
< 200 ft
Symbols :   Thunderstorms  Fog  Heavy snow  Heavy precipitations  Wind > 20 kt
SIGMETs :     Misc.  Thunderstorms  Icing  Turbulence  Mountain Waves  Volcanic Ashes






- Airport Elevation : 13 ft
- IATA code : OST


EBOS - Oostend bruges Int.

CURRENT METAR :
  • 110420Z 03016KT 9999 FEW018 SCT025 BKN035 05/01 Q1012 NOSIG

EXPIRED METARs :
  • 110350Z 03016KT 9999 FEW018 SCT025 BKN035 05/01 Q1012 NOSIG
  • 110320Z 03016KT 9999 FEW018 SCT025 BKN035 05/01 Q1011 NOSIG
  • 110250Z 03016KT 9999 FEW015 SCT025 BKN030 04/01 Q1011 NOSIG
  • 110220Z 02017KT 9999 -RA FEW012 SCT016 BKN032 04/01 Q1011 NOSIG
  • 110150Z 03017KT 9999 -RA FEW010 SCT012 BKN014 04/01 Q1011 NOSIG

TAF TAF EBOS
Valid from the 11 at 00:00 until the 12 at 06:00 UTC


102310Z 1100/1206 03016G26KT 7000 -RA SCT007 BKN012
TEMPO 1100/1107 3500 -RADZ SCT004 BKN007
BECMG 1107/1109 SCT020 BKN040
PROB30
TEMPO 1109/1115 4500 -SHRAGS BKN014CB
BECMG 1115/1117 36012KT



MET'MAP, your aeronautical weather chart ! - Copyright ORBIFLY December 2007 - Disclaimer

ORBIFLY MET'MAP TEAM :

Programming & Development : Alexandra Zaïnal
Concept & original design : Baudouin d'Aumeries
Assistance for programming : Marc-Olivier Méhu
Technical & hardware support : Manuel Goepfert

Contact : metmap@orbifly.com




SOURCES & CREDITS :

   NOAA